Aviation Digital Data Service (ADDS)

Output produced by METARs form (1700 UTC 01 July 2016)
found at http://www.aviationweather.gov/adds/metars/
 
KLNS 011653Z 21009KT 10SM SCT034 28/20 A2992 RMK AO2 SLP130 T02830200
KLNS 011637Z 0117/0212 19007KT P6SM BKN035 BKN040 
     FM011800 18008G14KT P6SM VCTS SCT035 BKN060CB 
     FM020100 24006KT P6SM VCSH BKN100